Time;durP1;ratioP1;P1;durP2;ratioP2;P2;SDS_P1;SDS_P2;PMS_P1;PMS_P2;Temp;Humidity;BMP_temperature;BMP_pressure;BME280_temperature;BME280_humidity;BME280_pressure;Samples;Min_cycle;Max_cycle;Signal;HPM_P1;HPM_P2
2022/12/30 00:00:22;;;;;;;3.70;0.65;;;6.90;99.90;;;;;;5045553;28;20033;-73
2022/12/30 00:02:48;;;;;;;1.95;0.30;;;;;;;;;;5046647;28;20028;-73
2022/12/30 00:05:14;;;;;;;0.22;0.10;;;;;;;;;;5049139;28;20029;-73
2022/12/30 00:07:40;;;;;;;0.80;0.20;;;;;;;;;;5048166;28;20036;-73
2022/12/30 00:10:05;;;;;;;0.10;0.10;;;6.60;99.90;;;;;;5048663;28;20037;-73
2022/12/30 00:35:10;;;;;;;0.15;0.15;;;6.50;99.90;;;;;;5026954;28;20375;-73
2022/12/30 00:37:36;;;;;;;0.90;0.73;;;;;;;;;;5026809;28;20336;-73
2022/12/30 00:40:02;;;;;;;0.50;0.45;;;;;;;;;;5026987;28;20046;-73
2022/12/30 00:45:12;;;;;;;0.10;0.10;;;7.40;99.90;;;;;;5026799;28;20063;-73
2022/12/30 00:47:38;;;;;;;0.20;0.20;;;;;;;;;;5037915;28;20112;-74
2022/12/30 00:58:17;;;;;;;0.22;0.22;;;6.50;99.90;;;;;;5046766;28;20036;-73
2022/12/30 01:00:43;;;;;;;0.55;0.55;;;;;;;;;;5037415;28;20116;-73
2022/12/30 01:03:09;;;;;;;0.10;0.10;;;6.50;99.90;;;;;;5026108;28;20028;-73
2022/12/30 01:05:37;;;;;;;0.10;0.10;;;6.60;99.90;;;;;;5026830;28;20057;-73
2022/12/30 01:08:03;;;;;;;0.93;0.87;;;;;;;;;;5026625;28;20222;-73
2022/12/30 01:10:29;;;;;;;0.20;0.20;;;6.50;99.90;;;;;;5026407;28;20272;-73
2022/12/30 01:12:55;;;;;;;0.20;0.10;;;6.40;99.90;;;;;;5024633;28;20035;-74
2022/12/30 01:15:20;;;;;;;0.38;0.10;;;6.30;99.90;;;;;;5026047;28;20038;-73
2022/12/30 01:17:46;;;;;;;0.35;0.10;;;6.30;99.90;;;;;;5026537;28;20862;-73
2022/12/30 01:20:12;;;;;;;0.30;0.30;;;;;;;;;;5026798;28;20029;-73
2022/12/30 01:22:38;;;;;;;0.47;0.17;;;6.10;99.90;;;;;;5026538;28;20076;-73
2022/12/30 01:25:04;;;;;;;0.15;0.15;;;;;;;;;;5027799;28;20453;-73
2022/12/30 01:27:32;;;;;;;0.60;0.32;;;6.30;99.90;;;;;;5029793;28;20044;-73
2022/12/30 01:29:58;;;;;;;0.10;0.10;;;;;;;;;;5030302;28;20026;-73
2022/12/30 01:32:24;;;;;;;0.15;0.15;;;;;;;;;;5029376;28;20025;-73
2022/12/30 01:34:53;;;;;;;0.10;0.10;;;;;;;;;;5029596;28;20033;-73
2022/12/30 01:37:19;;;;;;;0.20;0.20;;;6.10;99.90;;;;;;5029984;28;20029;-73
2022/12/30 01:39:45;;;;;;;0.20;0.20;;;6.10;99.90;;;;;;5029546;28;20120;-73
2022/12/30 01:42:26;;;;;;;0.52;0.52;;;6.10;99.90;;;;;;5036374;28;20032;-73
2022/12/30 01:45:14;;;;;;;0.20;0.20;;;5.90;99.90;;;;;;5029726;28;20580;-74
2022/12/30 01:47:48;;;;;;;0.10;0.10;;;6.00;99.90;;;;;;5043007;28;20544;-73
2022/12/30 01:50:20;;;;;;;0.30;0.25;;;6.00;99.90;;;;;;5048265;28;20048;-73
2022/12/30 01:53:05;;;;;;;0.52;0.30;;;5.80;99.90;;;;;;5050425;28;20013;-73
2022/12/30 01:55:37;;;;;;;0.20;0.20;;;5.80;99.90;;;;;;5051317;28;20174;-73
2022/12/30 01:58:08;;;;;;;0.47;0.20;;;5.70;99.90;;;;;;5051628;28;20024;-73
2022/12/30 02:00:33;;;;;;;1.13;0.25;;;5.80;99.90;;;;;;5051542;28;20104;-73
2022/12/30 02:02:59;;;;;;;0.85;0.63;;;;;;;;;;5050968;28;20159;-73
2022/12/30 02:05:28;;;;;;;1.85;0.30;;;5.60;99.90;;;;;;5067043;28;20021;-72
2022/12/30 02:08:07;;;;;;;0.22;0.22;;;5.40;99.90;;;;;;5038479;28;20030;-73
2022/12/30 02:10:36;;;;;;;0.52;0.52;;;5.30;99.90;;;;;;5032072;28;20104;-73
2022/12/30 02:13:02;;;;;;;0.57;0.32;;;5.10;99.90;;;;;;5032534;28;20159;-73
2022/12/30 02:15:35;;;;;;;0.17;0.17;;;5.10;99.90;;;;;;5032103;28;20124;-73
2022/12/30 02:18:17;;;;;;;0.13;0.10;;;5.00;99.90;;;;;;5051878;28;20028;-73
2022/12/30 02:21:04;;;;;;;0.10;0.10;;;4.60;99.90;;;;;;5050662;28;20052;-73
2022/12/30 02:23:30;;;;;;;0.32;0.20;;;;;;;;;;5052681;28;20162;-73
2022/12/30 02:26:19;;;;;;;0.10;0.10;;;4.90;99.90;;;;;;5051133;28;20037;-73
2022/12/30 02:28:47;;;;;;;0.20;0.20;;;4.70;99.90;;;;;;5052487;28;20039;-73
2022/12/30 02:31:26;;;;;;;0.75;0.20;;;5.30;99.90;;;;;;5051918;28;20083;-74
2022/12/30 02:34:16;;;;;;;0.10;0.10;;;4.40;99.90;;;;;;5052422;28;20039;-73
2022/12/30 02:36:42;;;;;;;0.43;0.20;;;;;;;;;;5051211;28;20036;-73
2022/12/30 02:39:15;;;;;;;0.10;0.10;;;4.40;99.90;;;;;;5052547;28;20041;-73
2022/12/30 02:44:55;;;;;;;0.68;0.10;;;4.60;99.90;;;;;;5052280;28;20036;-73
2022/12/30 02:47:28;;;;;;;0.10;0.10;;;3.90;99.90;;;;;;5050522;28;20029;-73
2022/12/30 02:52:45;;;;;;;0.20;0.20;;;4.20;99.90;;;;;;5052282;28;20123;-73
2022/12/30 02:55:13;;;;;;;7.38;0.65;;;4.60;99.90;;;;;;5052162;28;20031;-73
2022/12/30 02:57:39;;;;;;;0.10;0.10;;;4.80;99.90;;;;;;5052125;28;20028;-72
2022/12/30 03:05:58;;;;;;;0.30;0.20;;;3.60;99.90;;;;;;5051634;28;20214;-72
2022/12/30 03:08:46;;;;;;;0.10;0.10;;;3.20;99.90;;;;;;5050442;28;20115;-73
2022/12/30 03:11:17;;;;;;;0.10;0.10;;;3.20;99.90;;;;;;5051787;28;20025;-73
2022/12/30 03:13:56;;;;;;;0.22;0.22;;;;;;;;;;5052032;28;20037;-73
2022/12/30 03:16:22;;;;;;;0.68;0.30;;;;;;;;;;5051983;28;20036;-73
2022/12/30 03:18:49;;;;;;;0.10;0.10;;;3.00;99.90;;;;;;5051241;28;20025;-73
2022/12/30 03:21:17;;;;;;;0.52;0.17;;;3.80;99.90;;;;;;5050894;28;20021;-73
2022/12/30 03:29:19;;;;;;;0.20;0.20;;;4.10;99.90;;;;;;5050993;28;19927;-73
2022/12/30 03:31:45;;;;;;;0.30;0.30;;;;;;;;;;5051883;28;20075;-73
2022/12/30 03:34:11;;;;;;;0.10;0.10;;;3.60;99.90;;;;;;5052694;28;20033;-73
2022/12/30 03:36:44;;;;;;;0.20;0.15;;;3.50;99.90;;;;;;5051196;28;20029;-73
2022/12/30 03:39:17;;;;;;;0.10;0.10;;;3.50;99.90;;;;;;5050237;28;20441;-73
2022/12/30 03:41:49;;;;;;;0.47;0.20;;;4.20;99.90;;;;;;5052476;28;20103;-73
2022/12/30 03:44:16;;;;;;;0.28;0.20;;;4.90;99.90;;;;;;5050727;28;20029;-73
2022/12/30 03:46:42;;;;;;;0.13;0.13;;;;;;;;;;5052556;28;20025;-72
2022/12/30 03:49:08;;;;;;;0.25;0.25;;;;;;;;;;5052197;28;20085;-73
2022/12/30 03:51:34;;;;;;;0.55;0.40;;;3.60;99.90;;;;;;5051637;28;20108;-73
2022/12/30 03:54:00;;;;;;;0.20;0.20;;;;;;;;;;5050742;28;20025;-73
2022/12/30 03:56:26;;;;;;;0.40;0.28;;;3.70;99.90;;;;;;5051849;28;20105;-73
2022/12/30 03:58:52;;;;;;;0.40;0.40;;;4.40;99.90;;;;;;5067133;28;20033;-73
2022/12/30 04:01:18;;;;;;;0.20;0.20;;;;;;;;;;5051570;28;20111;-72
2022/12/30 04:03:43;;;;;;;0.30;0.30;;;3.30;99.90;;;;;;5050692;28;20017;-73
2022/12/30 04:06:09;;;;;;;0.40;0.30;;;3.20;99.90;;;;;;5067652;28;20021;-73
2022/12/30 04:08:35;;;;;;;0.20;0.10;;;;;;;;;;5052341;28;20055;-72
2022/12/30 04:11:01;;;;;;;0.20;0.20;;;3.10;99.90;;;;;;5048634;28;20029;-73
2022/12/30 04:13:27;;;;;;;0.30;0.30;;;;;;;;;;5049761;28;20519;-73
2022/12/30 04:15:52;;;;;;;0.10;0.10;;;3.10;99.90;;;;;;5049471;28;20357;-73
2022/12/30 04:18:18;;;;;;;0.10;0.10;;;2.70;99.90;;;;;;5049911;28;20390;-73
2022/12/30 04:20:46;;;;;;;0.10;0.10;;;2.70;99.90;;;;;;5050324;28;20025;-73
2022/12/30 04:23:11;;;;;;;0.10;0.10;;;4.50;99.90;;;;;;5032676;28;20029;-73
2022/12/30 04:25:37;;;;;;;0.90;0.17;;;2.50;99.90;;;;;;5050304;28;20397;-73
2022/12/30 04:28:03;;;;;;;0.28;0.22;;;2.30;99.90;;;;;;5065269;28;20382;-73
2022/12/30 04:30:28;;;;;;;0.10;0.10;;;2.30;99.90;;;;;;5049538;28;20029;-74
2022/12/30 04:32:54;;;;;;;3.65;0.38;;;;;;;;;;5049779;28;20437;-74
2022/12/30 04:35:20;;;;;;;0.20;0.20;;;2.10;99.90;;;;;;5049425;28;20104;-74
2022/12/30 04:37:49;;;;;;;0.10;0.10;;;2.20;99.90;;;;;;5049567;28;20401;-72
2022/12/30 04:40:16;;;;;;;0.20;0.20;;;2.20;99.90;;;;;;5049419;28;20032;-73
2022/12/30 04:42:41;;;;;;;0.20;0.20;;;2.10;99.90;;;;;;5050028;28;20083;-73
2022/12/30 04:45:08;;;;;;;0.10;0.10;;;;;;;;;;5049240;28;20049;-73
2022/12/30 04:47:33;;;;;;;0.38;0.10;;;2.20;99.90;;;;;;5049456;28;20048;-73
2022/12/30 04:49:59;;;;;;;0.22;0.20;;;2.10;99.90;;;;;;5049409;28;20064;-73
2022/12/30 04:52:25;;;;;;;0.20;0.13;;;;;;;;;;5049436;28;20120;-73
2022/12/30 04:54:51;;;;;;;0.10;0.10;;;3.20;99.90;;;;;;5049423;28;20043;-74
2022/12/30 04:57:17;;;;;;;0.10;0.10;;;;;;;;;;5064699;28;20554;-72
2022/12/30 04:59:42;;;;;;;0.85;0.30;;;1.90;99.90;;;;;;5050251;28;20512;-73
2022/12/30 05:02:08;;;;;;;3.10;0.63;;;1.70;99.90;;;;;;5053660;28;20053;-74
2022/12/30 05:04:33;;;;;;;2.85;0.30;;;1.60;99.90;;;;;;5052192;28;20025;-73
2022/12/30 05:06:59;;;;;;;0.30;0.30;;;;;;;;;;5053501;28;20493;-73
2022/12/30 05:09:25;;;;;;;0.13;0.13;;;1.70;99.90;;;;;;5053185;28;20544;-73
2022/12/30 05:11:51;;;;;;;0.20;0.20;;;1.70;99.90;;;;;;5053293;28;20074;-73
2022/12/30 05:14:17;;;;;;;0.65;0.20;;;;;;;;;;5052977;28;20033;-73
2022/12/30 05:16:43;;;;;;;0.35;0.25;;;;;;;;;;5053523;28;20111;-72
2022/12/30 05:19:09;;;;;;;0.28;0.13;;;;;;;;;;5053500;28;20147;-72
2022/12/30 05:21:35;;;;;;;0.45;0.30;;;1.80;99.90;;;;;;5053127;28;20516;-72
2022/12/30 05:27:02;;;;;;;4.90;0.77;;;1.90;99.90;;;;;;5030097;28;20056;-72
2022/12/30 05:29:28;;;;;;;1.20;0.30;;;;;;;;;;5047827;28;20196;-73
2022/12/30 05:31:54;;;;;;;0.20;0.20;;;2.80;99.90;;;;;;5051816;28;20029;-73
2022/12/30 05:34:19;;;;;;;0.38;0.30;;;2.00;99.90;;;;;;5052938;28;20029;-73
2022/12/30 05:36:45;;;;;;;0.20;0.20;;;2.00;99.90;;;;;;5052894;28;20116;-72
2022/12/30 05:39:12;;;;;;;0.98;0.25;;;1.90;99.90;;;;;;5052837;28;20549;-73
2022/12/30 05:41:38;;;;;;;0.10;0.10;;;2.00;99.90;;;;;;5052803;28;20116;-73
2022/12/30 05:44:04;;;;;;;0.22;0.22;;;2.00;99.90;;;;;;5052626;28;20053;-73
2022/12/30 05:46:30;;;;;;;0.40;0.40;;;;;;;;;;5052666;28;20032;-72
2022/12/30 05:48:56;;;;;;;0.10;0.10;;;;;;;;;;5051420;28;20025;-73
2022/12/30 05:51:23;;;;;;;0.10;0.10;;;;;;;;;;5053076;28;20111;-74
2022/12/30 05:53:48;;;;;;;0.10;0.10;;;1.90;99.90;;;;;;5052738;28;20032;-73
2022/12/30 05:56:14;;;;;;;0.50;0.40;;;1.70;99.90;;;;;;5067663;28;20032;-72
2022/12/30 05:58:40;;;;;;;0.30;0.20;;;;;;;;;;5052562;28;20021;-73
2022/12/30 06:01:06;;;;;;;0.13;0.13;;;1.80;99.90;;;;;;5050915;28;20025;-73
2022/12/30 06:03:32;;;;;;;0.20;0.20;;;1.80;99.90;;;;;;5052421;28;20394;-73
2022/12/30 06:06:00;;;;;;;0.20;0.20;;;1.60;99.90;;;;;;5052345;28;20659;-73
2022/12/30 06:08:27;;;;;;;0.25;0.25;;;1.60;99.90;;;;;;5067754;28;20075;-73
2022/12/30 06:10:53;;;;;;;0.85;0.85;;;;;;;;;;5050732;28;20021;-73
2022/12/30 06:13:19;;;;;;;0.68;0.50;;;1.40;99.90;;;;;;5052313;28;20025;-73
2022/12/30 06:15:45;;;;;;;0.50;0.50;;;1.30;99.90;;;;;;5051821;28;20101;-74
2022/12/30 06:18:10;;;;;;;3.90;1.08;;;1.40;99.90;;;;;;5052485;28;20025;-74
2022/12/30 06:20:36;;;;;;;0.47;0.47;;;;;;;;;;5067539;28;20489;-73
2022/12/30 06:23:03;;;;;;;1.48;1.38;;;;;;;;;;5052012;28;20017;-73
2022/12/30 06:25:29;;;;;;;0.70;0.70;;;1.30;99.90;;;;;;5052076;28;20053;-73
2022/12/30 06:27:55;;;;;;;0.40;0.40;;;1.30;99.90;;;;;;5052257;28;20120;-72
2022/12/30 06:30:20;;;;;;;0.63;0.40;;;1.30;99.90;;;;;;5051764;28;20151;-73
2022/12/30 06:32:46;;;;;;;2.30;0.30;;;;;;;;;;5052195;28;20128;-72
2022/12/30 06:35:13;;;;;;;0.20;0.20;;;;;;;;;;5051883;28;20028;-73
2022/12/30 06:37:39;;;;;;;0.20;0.20;;;;;;;;;;5052007;28;20650;-73
2022/12/30 06:40:06;;;;;;;2.38;0.75;;;1.30;99.90;;;;;;5051553;28;20271;-72
2022/12/30 06:42:32;;;;;;;0.30;0.30;;;;;;;;;;5050320;28;20036;-73
2022/12/30 06:44:58;;;;;;;2.42;0.47;;;;;;;;;;5051440;28;20025;-72
2022/12/30 06:47:25;;;;;;;0.55;0.55;;;;;;;;;;5050130;28;20031;-73
2022/12/30 06:49:50;;;;;;;0.20;0.20;;;1.00;99.90;;;;;;5051799;28;20029;-73
2022/12/30 06:52:16;;;;;;;0.30;0.30;;;1.00;99.90;;;;;;5067118;28;20071;-72
2022/12/30 06:54:42;;;;;;;0.20;0.20;;;;;;;;;;5051498;28;20106;-73
2022/12/30 06:57:07;;;;;;;0.40;0.40;;;0.90;99.90;;;;;;5051559;28;20068;-73
2022/12/30 06:59:33;;;;;;;1.42;0.20;;;2.40;99.90;;;;;;5066490;28;20024;-72
2022/12/30 07:01:59;;;;;;;0.25;0.25;;;1.00;99.90;;;;;;5066845;28;20061;-73
2022/12/30 07:04:24;;;;;;;0.40;0.40;;;0.90;99.90;;;;;;5051569;28;20091;-73
2022/12/30 07:06:51;;;;;;;0.30;0.30;;;;;;;;;;5051447;28;20024;-73
2022/12/30 07:09:17;;;;;;;0.85;0.45;;;1.00;99.90;;;;;;5051330;28;20021;-73
2022/12/30 07:11:42;;;;;;;0.10;0.10;;;0.90;99.90;;;;;;5051354;28;20040;-73
2022/12/30 07:14:08;;;;;;;1.85;0.45;;;;;;;;;;5050762;28;20021;-72
2022/12/30 07:16:34;;;;;;;0.60;0.60;;;;;;;;;;5049593;28;20044;-73
2022/12/30 07:19:01;;;;;;;0.43;0.43;;;;;;;;;;5051044;28;20092;-73
2022/12/30 07:21:27;;;;;;;0.20;0.20;;;;;;;;;;5051091;28;20021;-73
2022/12/30 07:23:52;;;;;;;0.30;0.30;;;0.90;99.90;;;;;;5049151;28;20102;-73
2022/12/30 07:26:18;;;;;;;0.28;0.28;;;;;;;;;;5050821;28;20032;-73
2022/12/30 07:28:44;;;;;;;0.40;0.30;;;1.00;99.90;;;;;;5051022;28;20025;-73
2022/12/30 07:31:10;;;;;;;0.22;0.22;;;;;;;;;;5050599;28;20115;-73
2022/12/30 07:33:36;;;;;;;0.20;0.20;;;0.90;99.90;;;;;;5040048;28;20059;-74
2022/12/30 07:36:02;;;;;;;0.28;0.28;;;;;;;;;;5049898;28;20120;-74
2022/12/30 07:38:28;;;;;;;0.80;0.50;;;;;;;;;;5048259;28;20073;-75
2022/12/30 07:40:53;;;;;;;0.57;0.40;;;0.70;99.90;;;;;;5047602;28;20037;-74
2022/12/30 07:43:20;;;;;;;5.25;0.50;;;0.80;99.90;;;;;;5048895;28;20039;-73
2022/12/30 07:45:46;;;;;;;21.90;13.48;;;;;;;;;;5045489;28;20508;-73
2022/12/30 07:48:12;;;;;;;9.13;4.28;;;;;;;;;;5046421;28;20025;-74
2022/12/30 07:50:40;;;;;;;5.97;2.22;;;0.70;99.90;;;;;;5047503;28;20028;-72
2022/12/30 07:53:06;;;;;;;1.77;1.00;;;1.80;99.90;;;;;;5046335;28;20024;-74
2022/12/30 07:55:32;;;;;;;3.17;1.33;;;0.90;99.90;;;;;;5047394;28;20036;-74
2022/12/30 07:57:58;;;;;;;2.97;1.80;;;0.90;99.90;;;;;;5046224;28;20040;-74
2022/12/30 08:00:24;;;;;;;6.03;2.25;;;1.00;99.90;;;;;;5047209;28;20029;-74
2022/12/30 08:02:50;;;;;;;24.67;12.73;;;;;;;;;;5047727;28;20506;-73
2022/12/30 08:05:16;;;;;;;17.77;9.75;;;1.30;99.90;;;;;;5045679;28;20040;-73
2022/12/30 08:07:42;;;;;;;7.57;4.57;;;1.30;99.90;;;;;;5047346;28;20175;-73
2022/12/30 08:10:08;;;;;;;9.57;5.80;;;;;;;;;;5046934;28;20456;-74
2022/12/30 08:12:35;;;;;;;8.13;4.65;;;1.50;99.90;;;;;;5047110;28;20394;-73
2022/12/30 08:15:01;;;;;;;6.32;3.33;;;1.90;99.90;;;;;;5045366;28;20311;-74
2022/12/30 08:17:28;;;;;;;2.05;1.15;;;1.60;99.90;;;;;;5046942;28;20353;-74
2022/12/30 08:19:54;;;;;;;25.25;8.80;;;1.50;99.90;;;;;;5047111;28;20017;-73
2022/12/30 08:22:19;;;;;;;0.80;0.55;;;1.70;99.90;;;;;;5046894;28;20501;-73
2022/12/30 08:24:45;;;;;;;3.13;2.90;;;;;;;;;;5047050;28;20025;-73
2022/12/30 08:27:11;;;;;;;1.27;1.08;;;;;;;;;;5046705;28;20032;-74
2022/12/30 08:29:37;;;;;;;1.15;1.05;;;1.90;99.90;;;;;;5046565;28;20040;-73
2022/12/30 08:32:03;;;;;;;1.55;1.20;;;2.30;99.90;;;;;;5044969;28;20032;-73
2022/12/30 08:34:28;;;;;;;1.25;1.15;;;2.10;99.90;;;;;;5046283;28;20650;-73
2022/12/30 08:36:54;;;;;;;0.60;0.55;;;;;;;;;;5045972;28;20044;-75
2022/12/30 08:39:20;;;;;;;0.40;0.40;;;;;;;;;;5046824;28;20053;-74
2022/12/30 08:41:46;;;;;;;0.85;0.85;;;;;;;;;;5048010;28;20028;-74
2022/12/30 08:44:12;;;;;;;0.40;0.40;;;;;;;;;;5044980;28;20029;-74
2022/12/30 08:46:40;;;;;;;0.43;0.43;;;;;;;;;;5044999;28;20056;-74
2022/12/30 08:49:07;;;;;;;0.30;0.30;;;2.90;99.90;;;;;;5048104;28;20389;-74
2022/12/30 08:51:33;;;;;;;0.80;0.80;;;2.90;99.90;;;;;;5045722;28;20040;-73
2022/12/30 08:53:59;;;;;;;1.27;1.00;;;;;;;;;;5046918;28;20017;-75
2022/12/30 08:56:31;;;;;;;0.90;0.90;;;3.40;99.90;;;;;;5043075;28;20064;-74
2022/12/30 08:58:58;;;;;;;0.70;0.70;;;;;;;;;;5046365;28;20021;-74
2022/12/30 09:01:27;;;;;;;2.20;2.10;;;3.60;99.90;;;;;;5046871;28;20032;-74
2022/12/30 09:03:53;;;;;;;2.13;1.70;;;5.00;99.90;;;;;;5046447;28;20036;-74
2022/12/30 09:06:21;;;;;;;3.10;2.30;;;3.90;99.90;;;;;;5046335;28;20033;-74
2022/12/30 09:08:48;;;;;;;2.88;1.05;;;;;;;;;;5048856;28;20039;-74
2022/12/30 09:11:22;;;;;;;0.85;0.85;;;4.00;99.90;;;;;;5045914;28;20051;-74
2022/12/30 09:13:48;;;;;;;1.25;1.15;;;4.30;99.90;;;;;;5045412;28;20025;-74
2022/12/30 09:16:21;;;;;;;1.63;1.50;;;4.40;99.90;;;;;;5046642;28;20402;-74
2022/12/30 09:18:46;;;;;;;1.05;0.98;;;4.40;99.90;;;;;;5045145;28;20021;-74
2022/12/30 09:21:12;;;;;;;1.73;1.25;;;4.80;99.90;;;;;;5046435;28;20031;-73
2022/12/30 09:23:38;;;;;;;1.60;0.80;;;;;;;;;;5045004;28;20025;-74
2022/12/30 09:26:05;;;;;;;2.13;1.00;;;5.10;99.90;;;;;;5044555;28;20040;-74
2022/12/30 09:28:31;;;;;;;1.38;1.23;;;;;;;;;;5045101;28;20352;-73
2022/12/30 09:30:57;;;;;;;1.50;1.40;;;5.20;99.90;;;;;;5046085;28;20025;-74
2022/12/30 09:33:23;;;;;;;1.27;1.20;;;5.40;99.90;;;;;;5044788;28;20398;-74
2022/12/30 09:35:49;;;;;;;1.00;1.00;;;;;;;;;;5046293;28;20510;-73
2022/12/30 09:38:14;;;;;;;1.50;1.38;;;5.50;99.90;;;;;;5046309;28;20099;-74
2022/12/30 09:40:49;;;;;;;2.00;1.30;;;5.50;99.90;;;;;;5043694;28;20036;-74
2022/12/30 09:43:52;;;;;;;2.65;1.70;;;5.60;99.90;;;;;;5045036;28;20482;-73
2022/12/30 09:46:35;;;;;;;2.33;2.13;;;5.70;99.90;;;;;;5048365;28;20028;-73
2022/12/30 09:49:19;;;;;;;2.13;1.33;;;6.00;99.90;;;;;;5061971;28;20017;-74
2022/12/30 09:51:50;;;;;;;3.20;1.83;;;6.20;99.90;;;;;;5059251;28;20036;-74
2022/12/30 09:54:19;;;;;;;1.88;1.70;;;6.30;99.90;;;;;;5059781;28;20051;-74
2022/12/30 09:56:48;;;;;;;1.80;1.70;;;6.50;99.90;;;;;;5060655;28;20341;-74
2022/12/30 09:59:21;;;;;;;2.42;1.88;;;6.70;99.90;;;;;;5061029;28;20329;-74
2022/12/30 10:01:57;;;;;;;1.67;1.58;;;;;;;;;;5061005;28;20364;-75
2022/12/30 10:04:25;;;;;;;2.47;1.05;;;;;;;;;;5060121;28;20032;-74
2022/12/30 10:07:16;;;;;;;1.30;1.20;;;7.00;99.90;;;;;;5057672;28;20029;-74
2022/12/30 10:10:04;;;;;;;1.60;1.30;;;7.40;99.90;;;;;;5058386;28;20115;-74
2022/12/30 10:12:43;;;;;;;1.08;1.02;;;7.50;99.90;;;;;;5013067;28;20041;-74
2022/12/30 10:15:45;;;;;;;1.45;1.35;;;7.60;99.90;;;;;;5058481;28;20221;-74
2022/12/30 10:18:40;;;;;;;1.42;1.17;;;7.70;99.90;;;;;;5060631;28;20255;-74
2022/12/30 10:21:21;;;;;;;5.10;3.00;;;7.60;99.90;;;;;;5058481;28;20017;-74
2022/12/30 10:23:54;;;;;;;9.40;4.90;;;7.70;99.90;;;;;;5057878;28;20049;-75
2022/12/30 10:26:45;;;;;;;6.97;3.45;;;7.80;99.90;;;;;;5055828;28;20078;-75
2022/12/30 10:29:36;;;;;;;1.83;1.33;;;8.00;99.90;;;;;;5048824;28;20104;-74
2022/12/30 10:32:19;;;;;;;2.47;1.50;;;8.10;99.90;;;;;;5047168;28;20025;-74
2022/12/30 10:34:47;;;;;;;1.75;1.17;;;8.20;99.90;;;;;;5049138;28;20470;-74
2022/12/30 10:37:29;;;;;;;2.22;2.03;;;8.30;99.90;;;;;;5054153;28;20340;-74
2022/12/30 10:39:55;;;;;;;2.08;1.77;;;;;;;;;;5050673;28;20405;-75
2022/12/30 10:42:38;;;;;;;3.17;2.35;;;8.40;99.90;;;;;;5048941;28;20114;-74
2022/12/30 10:45:57;;;;;;;1.20;0.98;;;8.90;99.90;;;;;;5059631;28;20036;-75
2022/12/30 10:48:33;;;;;;;1.42;1.33;;;;;;;;;;5036954;28;20059;-74
2022/12/30 10:50:59;;;;;;;1.65;1.55;;;9.00;99.90;;;;;;5057213;28;20092;-74
2022/12/30 10:53:26;;;;;;;8.57;1.80;;;;;;;;;;5056119;28;20048;-74
2022/12/30 10:55:56;;;;;;;1.92;1.33;;;9.00;99.90;;;;;;5057198;28;20036;-75
2022/12/30 10:58:30;;;;;;;7.65;2.42;;;9.20;99.90;;;;;;5056819;28;20244;-74
2022/12/30 11:00:58;;;;;;;2.10;2.00;;;9.00;99.90;;;;;;5057093;28;20486;-74
2022/12/30 11:03:34;;;;;;;2.38;2.03;;;9.20;99.90;;;;;;5057048;28;20043;-74
2022/12/30 11:06:36;;;;;;;2.28;1.25;;;9.30;99.90;;;;;;5059068;28;20248;-74
2022/12/30 11:09:13;;;;;;;0.88;0.88;;;9.50;99.90;;;;;;5059993;28;20100;-74
2022/12/30 11:14:44;;;;;;;2.13;0.80;;;9.80;99.90;;;;;;5059628;28;20272;-75
2022/12/30 11:17:10;;;;;;;1.42;1.33;;;;;;;;;;5057738;28;20060;-74
2022/12/30 11:19:36;;;;;;;3.05;1.55;;;;;;;;;;5048018;28;20446;-75
2022/12/30 11:22:03;;;;;;;1.50;1.33;;;10.10;99.90;;;;;;5050331;28;20025;-74
2022/12/30 11:24:29;;;;;;;1.38;1.27;;;10.30;99.90;;;;;;5059745;28;20025;-74
2022/12/30 11:26:55;;;;;;;3.33;1.48;;;;;;;;;;5058095;28;20013;-74
2022/12/30 11:29:23;;;;;;;1.48;0.82;;;10.30;99.90;;;;;;5060201;28;20311;-76
2022/12/30 11:31:51;;;;;;;1.77;0.90;;;10.40;99.90;;;;;;5048448;28;20013;-74
2022/12/30 11:34:44;;;;;;;0.50;0.45;;;10.30;99.90;;;;;;5049323;28;20490;-75
2022/12/30 11:37:35;;;;;;;0.80;0.80;;;10.50;99.90;;;;;;5045098;28;20045;-75
2022/12/30 11:40:28;;;;;;;0.60;0.60;;;10.50;99.90;;;;;;5048871;28;20041;-74
2022/12/30 11:43:15;;;;;;;0.50;0.50;;;10.60;99.90;;;;;;5059524;28;20100;-74
2022/12/30 11:45:49;;;;;;;4.13;2.15;;;10.40;99.90;;;;;;5059767;28;20024;-74
2022/12/30 11:48:28;;;;;;;1.35;0.98;;;10.30;99.90;;;;;;5058989;28;20017;-74
2022/12/30 11:50:54;;;;;;;6.03;2.15;;;10.50;99.90;;;;;;5059746;28;20051;-75
2022/12/30 11:53:22;;;;;;;1.55;0.60;;;10.10;99.90;;;;;;5048320;28;20021;-75
2022/12/30 11:55:55;;;;;;;1.55;0.90;;;10.10;99.90;;;;;;5047701;28;20519;-73
2022/12/30 11:58:21;;;;;;;0.55;0.55;;;;;;;;;;5046361;28;20033;-74
2022/12/30 12:01:02;;;;;;;0.85;0.40;;;9.50;99.90;;;;;;5051804;28;20218;-73
2022/12/30 12:03:29;;;;;;;0.50;0.50;;;9.90;99.90;;;;;;5038905;28;20287;-75
2022/12/30 12:06:10;;;;;;;0.60;0.60;;;9.80;99.90;;;;;;5029463;28;20030;-73
2022/12/30 12:09:02;;;;;;;0.85;0.50;;;9.60;99.90;;;;;;5044359;28;20032;-74
2022/12/30 12:11:35;;;;;;;0.63;0.63;;;9.60;99.90;;;;;;5073125;28;20029;-75
2022/12/30 12:14:23;;;;;;;0.90;0.60;;;9.70;99.90;;;;;;5072681;28;20074;-74
2022/12/30 12:16:49;;;;;;;1.65;1.10;;;;;;;;;;5055661;28;20094;-74
2022/12/30 12:19:29;;;;;;;0.85;0.40;;;9.70;99.90;;;;;;5055282;28;20032;-74
2022/12/30 12:22:00;;;;;;;0.55;0.40;;;9.90;99.90;;;;;;5057769;28;20029;-74
2022/12/30 12:24:39;;;;;;;0.40;0.40;;;10.00;99.90;;;;;;5056798;28;20028;-73
2022/12/30 12:27:16;;;;;;;;;;;9.90;99.90;;;;;;5058687;28;20025;-74
2022/12/30 12:29:42;;;;;;;0.40;0.40;;;9.90;99.90;;;;;;5064013;28;20147;-74
2022/12/30 12:32:54;;;;;;;0.40;0.40;;;9.80;99.90;;;;;;5077651;28;20039;-74
2022/12/30 12:35:43;;;;;;;0.38;0.38;;;10.00;99.90;;;;;;4983247;28;20027;-75
2022/12/30 12:38:29;;;;;;;0.43;0.43;;;9.80;99.90;;;;;;5038360;28;20064;-74
2022/12/30 12:41:14;;;;;;;0.63;0.43;;;9.80;99.90;;;;;;5054163;28;20071;-75
2022/12/30 12:44:13;;;;;;;0.28;0.28;;;9.90;99.90;;;;;;5035431;28;20022;-75
2022/12/30 12:47:03;;;;;;;0.38;0.35;;;9.90;99.90;;;;;;5030008;28;20021;-75
2022/12/30 12:49:53;;;;;;;0.40;0.40;;;10.00;99.90;;;;;;5030881;28;20030;-75
2022/12/30 12:52:43;;;;;;;0.65;0.57;;;10.00;99.90;;;;;;5032734;28;20133;-74
2022/12/30 12:55:32;;;;;;;0.50;0.50;;;10.10;99.90;;;;;;5032062;28;20029;-74
2022/12/30 12:58:07;;;;;;;0.33;0.33;;;10.20;99.90;;;;;;5029376;28;20103;-74
2022/12/30 13:01:04;;;;;;;0.73;0.73;;;10.20;99.90;;;;;;5028519;28;20047;-75
2022/12/30 13:03:54;;;;;;;0.52;0.52;;;10.20;99.90;;;;;;5029066;28;20065;-74
2022/12/30 13:06:26;;;;;;;0.70;0.63;;;10.20;99.90;;;;;;5044794;28;20333;-73
2022/12/30 13:09:09;;;;;;;0.65;0.40;;;10.20;99.90;;;;;;5044487;28;20265;-73
2022/12/30 13:12:04;;;;;;;7.32;2.80;;;10.20;99.90;;;;;;5028891;28;20037;-73
2022/12/30 13:14:53;;;;;;;1.85;0.63;;;10.30;99.90;;;;;;5027563;28;20061;-73
2022/12/30 13:17:42;;;;;;;5.55;2.13;;;10.60;99.90;;;;;;5027902;28;20114;-73
2022/12/30 13:20:16;;;;;;;24.13;8.60;;;10.80;99.90;;;;;;5029438;28;20045;-74
2022/12/30 13:22:43;;;;;;;4.22;1.95;;;11.10;99.90;;;;;;5039150;28;20029;-74
2022/12/30 13:25:39;;;;;;;2.80;0.68;;;11.20;99.90;;;;;;5035210;28;20025;-74
2022/12/30 13:28:06;;;;;;;2.15;1.58;;;;;;;;;;5026485;28;20064;-74
2022/12/30 13:30:49;;;;;;;3.30;0.80;;;11.40;99.90;;;;;;5052257;28;20029;-74
2022/12/30 13:33:24;;;;;;;4.75;2.78;;;11.70;99.90;;;;;;5030705;28;20082;-74
2022/12/30 13:36:09;;;;;;;7.70;2.88;;;;;;;;;;5042146;28;20048;-74
2022/12/30 13:38:58;;;;;;;3.85;1.35;;;11.70;99.90;;;;;;5049765;28;20128;-74
2022/12/30 13:41:48;;;;;;;0.38;0.35;;;11.80;99.90;;;;;;5049884;28;20075;-74
2022/12/30 13:44:18;;;;;;;;;;;11.90;99.90;;;;;;5050267;28;20040;-74
2022/12/30 13:46:52;;;;;;;0.25;0.25;;;11.60;99.90;;;;;;5049569;28;19909;-74
2022/12/30 13:49:26;;;;;;;0.65;0.65;;;11.60;99.90;;;;;;5049851;28;20035;-74
2022/12/30 13:52:05;;;;;;;4.35;0.32;;;11.50;99.90;;;;;;5049883;28;20021;-74
2022/12/30 13:54:32;;;;;;;0.82;0.47;;;11.40;99.90;;;;;;5049496;28;20106;-74
2022/12/30 13:57:00;;;;;;;0.80;0.80;;;;;;;;;;5049675;28;20033;-74
2022/12/30 13:59:30;;;;;;;0.40;0.40;;;11.40;99.90;;;;;;5049340;28;20453;-74
2022/12/30 14:02:17;;;;;;;0.47;0.30;;;11.10;99.90;;;;;;5049601;28;20031;-74
2022/12/30 14:04:54;;;;;;;0.38;0.35;;;11.10;99.90;;;;;;5045730;28;20044;-74
2022/12/30 14:07:38;;;;;;;3.85;0.35;;;11.10;99.90;;;;;;5029592;28;20030;-74
2022/12/30 14:10:19;;;;;;;1.85;0.40;;;10.90;99.90;;;;;;5028050;28;20040;-74
2022/12/30 14:12:45;;;;;;;0.65;0.28;;;;;;;;;;5028954;28;20061;-74
2022/12/30 14:15:30;;;;;;;0.43;0.40;;;10.80;99.90;;;;;;5027754;28;20079;-74
2022/12/30 14:18:17;;;;;;;1.52;0.98;;;10.90;99.90;;;;;;5028741;28;20065;-75
2022/12/30 14:20:56;;;;;;;3.22;0.95;;;10.90;99.90;;;;;;5015100;28;20033;-75
2022/12/30 14:24:07;;;;;;;3.15;1.10;;;10.80;99.90;;;;;;5028037;28;20029;-75
2022/12/30 14:26:39;;;;;;;0.40;0.40;;;11.00;99.90;;;;;;5015337;28;20033;-74
2022/12/30 14:29:21;;;;;;;2.65;1.55;;;11.40;99.90;;;;;;5049145;28;20033;-75
2022/12/30 14:31:50;;;;;;;3.58;1.80;;;11.00;99.90;;;;;;5048405;28;20082;-74
2022/12/30 14:34:31;;;;;;;0.63;0.52;;;11.00;99.90;;;;;;5049487;28;20108;-74
2022/12/30 14:37:21;;;;;;;3.35;1.75;;;11.30;99.90;;;;;;5049058;28;20036;-74
2022/12/30 14:39:48;;;;;;;0.90;0.75;;;10.90;99.90;;;;;;5043164;28;20492;-75
2022/12/30 14:42:26;;;;;;;1.20;1.02;;;11.00;99.90;;;;;;5049006;28;20056;-74